createdAt,value
2017-11-23T00:01:04.425Z,7.40
2017-11-23T00:03:32.731Z,7.50
2017-11-23T00:06:00.986Z,7.40
2017-11-23T00:08:30.012Z,7.30
2017-11-23T00:10:58.272Z,7.30
2017-11-23T00:13:26.540Z,7.10
2017-11-23T00:15:55.582Z,7.10
2017-11-23T00:18:23.836Z,7.00
2017-11-23T00:20:52.101Z,7.00
2017-11-23T00:23:21.212Z,7.10
2017-11-23T00:25:49.459Z,7.10
2017-11-23T00:28:17.750Z,7.10
2017-11-23T00:30:45.992Z,7.10
2017-11-23T00:33:14.244Z,7.10
2017-11-23T00:35:42.512Z,7.20
2017-11-23T00:38:10.792Z,7.20
2017-11-23T00:40:39.063Z,7.20
2017-11-23T00:43:07.314Z,7.10
2017-11-23T00:45:35.570Z,7.00
2017-11-23T00:48:03.823Z,6.90
2017-11-23T00:50:32.113Z,6.90
2017-11-23T00:53:00.361Z,6.80
2017-11-23T00:55:29.403Z,6.80
2017-11-23T00:57:57.660Z,6.80
2017-11-23T01:00:26.755Z,6.80
2017-11-23T01:02:55.004Z,6.80
2017-11-23T01:05:23.267Z,6.80
2017-11-23T01:07:51.509Z,6.70
2017-11-23T01:10:19.770Z,6.70
2017-11-23T01:12:48.032Z,6.70
2017-11-23T01:15:17.092Z,6.80
2017-11-23T01:17:45.328Z,6.80
2017-11-23T01:20:14.355Z,6.80
2017-11-23T01:22:42.792Z,6.80
2017-11-23T01:25:11.067Z,6.80
2017-11-23T01:27:39.331Z,6.90
2017-11-23T01:30:07.619Z,6.90
2017-11-23T01:32:35.899Z,6.90
2017-11-23T01:35:04.154Z,6.90
2017-11-23T01:37:32.444Z,6.90
2017-11-23T01:40:00.686Z,6.90
2017-11-23T01:42:29.716Z,6.90
2017-11-23T01:44:57.962Z,6.90
2017-11-23T01:47:27.005Z,7.00
2017-11-23T01:49:55.238Z,7.00
2017-11-23T01:52:24.256Z,7.00
2017-11-23T01:54:52.511Z,6.90
2017-11-23T01:57:21.538Z,7.00
2017-11-23T01:59:49.793Z,7.00
2017-11-23T02:02:18.843Z,7.00
2017-11-23T02:04:47.128Z,7.00
2017-11-23T02:07:15.509Z,7.00
2017-11-23T02:09:43.764Z,7.00
2017-11-23T02:12:12.021Z,7.00
2017-11-23T02:14:40.279Z,6.90
2017-11-23T02:17:08.548Z,6.90
2017-11-23T02:19:36.799Z,6.90
2017-11-23T02:22:05.047Z,6.90
2017-11-23T02:24:34.072Z,6.80
2017-11-23T02:27:02.320Z,6.80
2017-11-23T02:29:31.344Z,6.80
2017-11-23T02:31:59.595Z,6.80
2017-11-23T02:34:28.639Z,6.80
2017-11-23T02:36:56.879Z,6.80
2017-11-23T02:39:25.205Z,6.90
2017-11-23T02:41:53.575Z,7.00
2017-11-23T02:44:21.844Z,6.80
2017-11-23T02:46:50.876Z,7.00
2017-11-23T02:49:19.153Z,7.00
2017-11-23T02:51:47.439Z,7.10
2017-11-23T02:54:16.395Z,7.10
2017-11-23T02:56:45.451Z,7.20
2017-11-23T02:59:14.496Z,7.20
2017-11-23T03:01:42.809Z,7.20
2017-11-23T03:04:11.098Z,7.20
2017-11-23T03:06:39.378Z,7.20
2017-11-23T03:09:07.640Z,7.30
2017-11-23T03:11:35.943Z,7.30
2017-11-23T03:14:04.256Z,7.30
2017-11-23T03:16:32.546Z,7.30
2017-11-23T03:19:01.579Z,7.40
2017-11-23T03:21:29.873Z,7.40
2017-11-23T03:23:58.163Z,7.40
2017-11-23T03:26:27.445Z,7.40
2017-11-23T03:28:55.712Z,7.50
2017-11-23T03:31:23.982Z,7.50
2017-11-23T03:33:52.291Z,7.40
2017-11-23T03:36:20.569Z,7.50
2017-11-23T03:38:48.881Z,7.50
2017-11-23T03:41:17.169Z,7.50
2017-11-23T03:43:45.433Z,7.50
2017-11-23T03:46:13.722Z,7.60
2017-11-23T03:48:41.987Z,7.50
2017-11-23T03:51:10.233Z,7.40
2017-11-23T03:53:39.268Z,7.40
2017-11-23T03:56:07.791Z,7.40
2017-11-23T03:58:36.049Z,7.40
2017-11-23T04:01:05.129Z,7.30
2017-11-23T04:03:33.385Z,7.20
2017-11-23T04:06:01.651Z,7.10
2017-11-23T04:08:30.689Z,7.20
2017-11-23T04:10:59.072Z,7.20
2017-11-23T04:13:27.337Z,7.20
2017-11-23T04:15:55.586Z,7.20
2017-11-23T04:18:23.839Z,7.30
2017-11-23T04:20:52.083Z,7.30
2017-11-23T04:23:20.344Z,7.20
2017-11-23T04:25:48.590Z,7.20
2017-11-23T04:28:16.863Z,7.20
2017-11-23T04:30:45.112Z,7.20
2017-11-23T04:33:13.394Z,7.10
2017-11-23T04:35:41.618Z,7.20
2017-11-23T04:38:09.879Z,7.20
2017-11-23T04:40:38.129Z,7.20
2017-11-23T04:43:06.390Z,7.20
2017-11-23T04:45:34.695Z,7.30
2017-11-23T04:48:02.951Z,7.30
2017-11-23T04:50:31.369Z,7.30
2017-11-23T04:52:59.623Z,7.40
2017-11-23T04:55:27.920Z,7.30
2017-11-23T04:57:56.188Z,7.40
2017-11-23T05:00:24.500Z,7.50
2017-11-23T05:02:52.774Z,7.50
2017-11-23T05:05:21.022Z,7.40
2017-11-23T05:07:50.050Z,7.20
2017-11-23T05:10:18.287Z,7.20
2017-11-23T05:12:47.312Z,7.40
2017-11-23T05:15:15.564Z,7.40
2017-11-23T05:17:43.817Z,7.40
2017-11-23T05:20:12.063Z,7.40
2017-11-23T05:22:40.359Z,7.50
2017-11-23T05:25:08.639Z,7.50
2017-11-23T05:27:37.043Z,7.40
2017-11-23T05:30:05.309Z,7.20
2017-11-23T05:32:33.712Z,7.10
2017-11-23T05:35:01.957Z,7.10
2017-11-23T05:37:30.219Z,7.10
2017-11-23T05:39:58.520Z,7.00
2017-11-23T05:42:26.775Z,6.90
2017-11-23T05:44:55.108Z,7.00
2017-11-23T05:47:23.367Z,7.00
2017-11-23T05:49:51.615Z,7.00
2017-11-23T05:52:20.768Z,7.10
2017-11-23T05:54:50.707Z,7.00
2017-11-23T05:57:19.092Z,7.00
2017-11-23T05:59:47.312Z,7.10
2017-11-23T06:02:16.342Z,7.10
2017-11-23T06:04:44.590Z,7.10
2017-11-23T06:07:13.664Z,7.10
2017-11-23T06:09:43.175Z,7.20
2017-11-23T06:12:11.471Z,7.20
2017-11-23T06:14:40.487Z,7.50
2017-11-23T06:17:08.751Z,7.50
2017-11-23T06:19:37.972Z,7.50
2017-11-23T06:22:09.090Z,7.50
2017-11-23T06:24:38.262Z,7.60
2017-11-23T06:27:06.513Z,7.50
2017-11-23T06:29:34.770Z,7.50
2017-11-23T06:32:03.772Z,7.60
2017-11-23T06:34:32.025Z,7.60
2017-11-23T06:37:00.259Z,7.50
2017-11-23T06:39:28.527Z,7.50
2017-11-23T06:41:56.772Z,7.60
2017-11-23T06:44:25.817Z,7.70
2017-11-23T06:46:54.069Z,7.70
2017-11-23T06:49:22.445Z,7.70
2017-11-23T06:51:51.188Z,7.70
2017-11-23T06:54:19.441Z,7.80
2017-11-23T06:56:48.505Z,7.70
2017-11-23T06:59:17.290Z,7.60
2017-11-23T07:01:46.277Z,7.70
2017-11-23T07:04:14.977Z,7.70
2017-11-23T07:06:43.234Z,7.60
2017-11-23T07:09:11.521Z,7.60
2017-11-23T07:11:39.757Z,7.60
2017-11-23T07:14:08.053Z,7.70
2017-11-23T07:16:36.296Z,7.80
2017-11-23T07:19:05.380Z,7.90
2017-11-23T07:21:33.721Z,7.80
2017-11-23T07:24:02.024Z,7.80
2017-11-23T07:26:30.300Z,7.90
2017-11-23T07:28:58.563Z,7.80
2017-11-23T07:31:26.859Z,7.80
2017-11-23T07:33:55.217Z,7.90
2017-11-23T07:36:23.491Z,7.90
2017-11-23T07:38:52.617Z,8.00
2017-11-23T07:41:20.892Z,8.00
2017-11-23T07:43:49.164Z,8.10
2017-11-23T07:46:17.428Z,8.20
2017-11-23T07:48:45.991Z,8.20
2017-11-23T07:51:15.268Z,8.30
2017-11-23T07:53:43.584Z,8.30
2017-11-23T07:56:11.833Z,8.40
2017-11-23T07:58:40.107Z,8.50
2017-11-23T08:01:08.365Z,8.50
2017-11-23T08:03:36.640Z,8.70
2017-11-23T08:06:04.932Z,8.80
2017-11-23T08:08:33.203Z,8.90
2017-11-23T08:11:01.456Z,9.30
2017-11-23T08:13:30.477Z,9.70
2017-11-23T08:15:58.715Z,9.70
2017-11-23T08:18:27.763Z,9.70
2017-11-23T08:20:56.008Z,9.70
2017-11-23T08:23:25.095Z,9.60
2017-11-23T08:25:53.340Z,9.60
2017-11-23T08:28:21.602Z,9.60
2017-11-23T08:30:49.848Z,9.50
2017-11-23T08:33:18.899Z,9.60
2017-11-23T08:35:48.096Z,9.50
2017-11-23T08:38:18.153Z,9.50
2017-11-23T08:40:46.811Z,9.50
2017-11-23T08:43:15.094Z,9.50
2017-11-23T08:45:43.362Z,9.50
2017-11-23T08:48:11.664Z,9.50
2017-11-23T08:50:39.919Z,9.50
2017-11-23T08:53:08.403Z,9.50
2017-11-23T08:55:37.157Z,9.80
2017-11-23T08:58:05.686Z,10.00
2017-11-23T09:00:33.940Z,10.30
2017-11-23T09:03:02.975Z,10.40
2017-11-23T09:05:31.312Z,10.40
2017-11-23T09:07:59.682Z,10.70
2017-11-23T09:10:27.924Z,11.20
2017-11-23T09:12:56.198Z,11.50
2017-11-23T09:15:24.452Z,11.60
2017-11-23T09:17:53.487Z,12.30
2017-11-23T09:20:21.739Z,12.20
2017-11-23T09:22:50.030Z,12.80
2017-11-23T09:25:18.282Z,13.20
2017-11-23T09:27:46.568Z,13.30
2017-11-23T09:30:15.609Z,13.90
2017-11-23T09:32:43.860Z,13.80
2017-11-23T09:35:12.884Z,14.40
2017-11-23T09:37:41.144Z,14.40
2017-11-23T09:40:09.421Z,14.60
2017-11-23T09:42:38.436Z,14.80
2017-11-23T09:45:06.737Z,14.70
2017-11-23T09:47:34.997Z,14.40
2017-11-23T09:50:03.256Z,14.20
2017-11-23T09:52:32.304Z,13.70
2017-11-23T09:55:01.121Z,13.70
2017-11-23T09:57:29.709Z,13.70
2017-11-23T09:59:58.053Z,13.60
2017-11-23T10:02:26.331Z,13.30
2017-11-23T10:04:54.607Z,12.70
2017-11-23T10:07:22.847Z,12.50
2017-11-23T10:09:51.116Z,12.50
2017-11-23T10:12:19.373Z,12.70
2017-11-23T10:14:47.634Z,12.80
2017-11-23T10:17:15.884Z,12.70
2017-11-23T10:19:44.933Z,12.50
2017-11-23T10:22:13.195Z,12.50
2017-11-23T10:24:41.464Z,12.60
2017-11-23T10:27:10.488Z,12.40
2017-11-23T10:29:38.760Z,12.40
2017-11-23T10:32:06.999Z,12.30
2017-11-23T10:34:36.035Z,12.00
2017-11-23T10:37:04.288Z,11.90
2017-11-23T10:39:33.321Z,12.00
2017-11-23T10:42:01.581Z,12.00
2017-11-23T10:44:29.849Z,12.10
2017-11-23T10:46:58.864Z,12.40
2017-11-23T10:49:27.150Z,12.40
2017-11-23T10:51:55.408Z,12.60
2017-11-23T10:54:24.445Z,13.10
2017-11-23T10:56:52.700Z,13.10
2017-11-23T10:59:21.009Z,13.50
2017-11-23T11:01:49.266Z,13.90
2017-11-23T11:04:17.520Z,14.20
2017-11-23T11:06:46.537Z,14.90
2017-11-23T11:09:15.612Z,15.10
2017-11-23T11:11:43.873Z,15.10
2017-11-23T11:14:12.146Z,15.40
2017-11-23T11:16:40.379Z,15.70
2017-11-23T11:19:09.475Z,16.30
2017-11-23T11:21:38.488Z,16.60
2017-11-23T11:24:06.758Z,16.60
2017-11-23T11:26:35.760Z,16.70
2017-11-23T11:29:04.020Z,16.60
2017-11-23T11:31:33.029Z,16.30
2017-11-23T11:34:02.048Z,16.10
2017-11-23T11:36:30.289Z,16.10
2017-11-23T11:38:58.558Z,15.80
2017-11-23T11:41:26.799Z,15.40
2017-11-23T11:43:55.059Z,15.50
2017-11-23T11:46:23.303Z,15.60
2017-11-23T11:48:51.569Z,15.60
2017-11-23T11:51:19.811Z,15.60
2017-11-23T11:53:48.081Z,15.50
2017-11-23T11:56:16.328Z,15.40
2017-11-23T11:58:44.602Z,15.40
2017-11-23T12:01:12.836Z,15.30
2017-11-23T12:03:41.127Z,15.10
2017-11-23T12:06:09.380Z,14.90
2017-11-23T12:08:37.647Z,14.80
2017-11-23T12:11:06.661Z,14.40
2017-11-23T12:13:34.924Z,14.40
2017-11-23T12:16:15.807Z,14.20
2017-11-23T12:18:56.758Z,14.00
2017-11-23T12:21:25.911Z,13.90
2017-11-23T12:24:06.074Z,13.80
2017-11-23T12:26:35.059Z,13.70
2017-11-23T12:29:15.170Z,13.70
2017-11-23T12:31:43.444Z,13.60
2017-11-23T12:34:11.715Z,13.50
2017-11-23T12:36:39.976Z,13.50
2017-11-23T12:39:08.246Z,13.50
2017-11-23T12:41:36.519Z,13.40
2017-11-23T12:44:04.790Z,13.40
2017-11-23T12:46:33.806Z,13.30
2017-11-23T12:49:02.073Z,13.20
2017-11-23T12:51:31.081Z,13.10
2017-11-23T12:54:00.213Z,13.10
2017-11-23T12:56:28.463Z,13.10
2017-11-23T12:58:57.476Z,13.10
2017-11-23T13:01:25.740Z,13.10
2017-11-23T13:03:54.756Z,13.10
2017-11-23T13:06:23.016Z,13.00
2017-11-23T13:08:52.024Z,13.10
2017-11-23T13:11:21.063Z,13.10
2017-11-23T13:13:49.311Z,13.10
2017-11-23T13:16:17.572Z,13.10
2017-11-23T13:18:46.576Z,13.20
2017-11-23T13:21:15.616Z,13.20
2017-11-23T13:23:43.852Z,13.20
2017-11-23T13:26:12.904Z,13.30
2017-11-23T13:28:41.164Z,13.30
2017-11-23T13:31:09.432Z,13.30
2017-11-23T13:33:38.457Z,13.20
2017-11-23T13:36:06.719Z,13.30
2017-11-23T13:38:34.956Z,13.20
2017-11-23T13:41:03.229Z,13.30
2017-11-23T13:43:31.470Z,13.30
2017-11-23T13:45:59.735Z,13.20
2017-11-23T13:48:28.765Z,13.10
2017-11-23T13:50:57.026Z,13.10
2017-11-23T13:53:25.280Z,13.10
2017-11-23T13:55:54.304Z,13.10
2017-11-23T13:58:22.561Z,13.10
2017-11-23T14:00:51.618Z,13.00
2017-11-23T14:03:19.869Z,12.90
2017-11-23T14:05:48.885Z,13.10
2017-11-23T14:08:17.136Z,13.00
2017-11-23T14:10:46.181Z,13.20
2017-11-23T14:13:14.464Z,13.10
2017-11-23T14:15:42.726Z,13.20
2017-11-23T14:18:10.971Z,13.30
2017-11-23T14:20:39.242Z,13.20
2017-11-23T14:23:08.255Z,13.30
2017-11-23T14:25:36.512Z,13.20
2017-11-23T14:28:05.528Z,13.20
2017-11-23T14:30:33.787Z,13.20
2017-11-23T14:33:02.043Z,13.20
2017-11-23T14:35:30.279Z,13.20
2017-11-23T14:37:58.544Z,13.30
2017-11-23T14:40:27.557Z,13.40
2017-11-23T14:42:56.601Z,13.40
2017-11-23T14:45:24.849Z,13.40
2017-11-23T14:47:53.117Z,13.40
2017-11-23T14:50:21.357Z,13.40
2017-11-23T14:52:49.623Z,13.50
2017-11-23T14:55:17.861Z,13.50
2017-11-23T14:57:46.913Z,13.50
2017-11-23T15:00:15.140Z,13.50
2017-11-23T15:02:44.184Z,13.50
2017-11-23T15:05:12.552Z,13.50
2017-11-23T15:07:40.820Z,13.60
2017-11-23T15:10:09.158Z,13.60
2017-11-23T15:12:37.411Z,13.60
2017-11-23T15:15:05.650Z,13.60
2017-11-23T15:17:33.904Z,13.70
2017-11-23T15:20:02.915Z,13.70
2017-11-23T15:22:32.151Z,13.70
2017-11-23T15:25:00.396Z,13.70
2017-11-23T15:27:29.434Z,13.70
2017-11-23T15:29:57.669Z,13.70
2017-11-23T15:32:26.696Z,13.80
2017-11-23T15:34:54.949Z,13.80
2017-11-23T15:37:23.977Z,13.80
2017-11-23T15:39:52.239Z,13.80
2017-11-23T15:42:21.365Z,13.80
2017-11-23T15:44:49.607Z,13.80
2017-11-23T15:47:17.884Z,13.80
2017-11-23T15:49:46.145Z,13.70
2017-11-23T15:52:14.390Z,13.70
2017-11-23T15:54:42.754Z,13.70
2017-11-23T15:57:11.768Z,13.70
2017-11-23T15:59:40.795Z,13.70
2017-11-23T16:02:09.090Z,13.70
2017-11-23T16:04:37.366Z,13.70
2017-11-23T16:07:05.619Z,13.80
2017-11-23T16:09:33.927Z,13.90
2017-11-23T16:12:02.168Z,13.90
2017-11-23T16:14:31.197Z,14.00
2017-11-23T16:16:59.433Z,14.00
2017-11-23T16:19:28.463Z,14.10
2017-11-23T16:21:56.714Z,14.10
2017-11-23T16:24:25.735Z,14.30
2017-11-23T16:26:53.989Z,14.20
2017-11-23T16:29:23.092Z,14.40
2017-11-23T16:31:52.092Z,14.40
2017-11-23T16:34:21.121Z,14.50
2017-11-23T16:36:53.991Z,14.50
2017-11-23T16:39:23.028Z,14.60
2017-11-23T16:41:54.898Z,14.60
2017-11-23T16:44:28.983Z,14.60
2017-11-23T16:50:17.793Z,14.70
2017-11-23T16:53:01.840Z,14.70
2017-11-23T16:55:35.660Z,14.60
2017-11-23T16:58:04.508Z,14.70
2017-11-23T17:03:38.164Z,14.70
2017-11-23T17:06:12.198Z,14.70
2017-11-23T17:08:46.147Z,14.70
2017-11-23T17:11:20.073Z,14.70
2017-11-23T17:13:54.783Z,14.70
2017-11-23T17:16:23.885Z,14.60
2017-11-23T17:18:52.727Z,14.60
2017-11-23T17:21:21.208Z,14.70
2017-11-23T17:23:49.450Z,14.70
2017-11-23T17:26:17.708Z,14.70
2017-11-23T17:28:46.019Z,14.70
2017-11-23T17:31:14.271Z,14.70
2017-11-23T17:33:42.524Z,14.80
2017-11-23T17:36:10.804Z,14.80
2017-11-23T17:38:39.054Z,14.90
2017-11-23T17:41:08.134Z,15.00
2017-11-23T17:43:36.391Z,14.90
2017-11-23T17:46:04.624Z,14.90
2017-11-23T17:48:32.876Z,15.00
2017-11-23T17:51:01.133Z,15.00
2017-11-23T17:53:29.368Z,15.00
2017-11-23T17:55:57.637Z,15.00
2017-11-23T17:58:26.652Z,15.00
2017-11-23T18:00:54.916Z,15.00
2017-11-23T18:03:23.913Z,15.10
2017-11-23T18:05:52.937Z,15.10
2017-11-23T18:08:21.979Z,15.10
2017-11-23T18:10:50.234Z,15.00
2017-11-23T18:13:18.542Z,15.00
2017-11-23T18:15:46.885Z,15.10
2017-11-23T18:18:15.193Z,15.10
2017-11-23T18:20:43.479Z,15.10
2017-11-23T18:23:11.752Z,15.10
2017-11-23T18:25:40.032Z,15.10
2017-11-23T18:28:08.338Z,15.10
2017-11-23T18:30:36.599Z,15.00
2017-11-23T18:33:04.866Z,15.00
2017-11-23T18:35:33.147Z,15.00
2017-11-23T18:38:01.445Z,15.00
2017-11-23T18:40:29.692Z,15.00
2017-11-23T18:42:57.987Z,15.00
2017-11-23T18:45:26.254Z,15.00
2017-11-23T18:47:54.507Z,14.90
2017-11-23T18:50:23.521Z,14.90
2017-11-23T18:52:51.772Z,14.90
2017-11-23T18:55:20.104Z,14.90
2017-11-23T18:57:48.370Z,14.90
2017-11-23T19:00:16.608Z,14.90
2017-11-23T19:02:44.884Z,14.90
2017-11-23T19:05:13.133Z,14.80
2017-11-23T19:07:41.417Z,14.90
2017-11-23T19:10:09.659Z,14.80
2017-11-23T19:12:37.943Z,14.90
2017-11-23T19:15:06.187Z,14.90
2017-11-23T19:17:34.443Z,14.90
2017-11-23T19:20:02.704Z,14.90
2017-11-23T19:22:30.967Z,14.90
2017-11-23T19:24:59.215Z,14.90
2017-11-23T19:27:28.243Z,14.80
2017-11-23T19:29:56.554Z,14.80
2017-11-23T19:32:24.805Z,14.80
2017-11-23T19:34:53.816Z,14.80
2017-11-23T19:37:22.083Z,14.80
2017-11-23T19:39:50.396Z,14.90
2017-11-23T19:42:18.655Z,14.90
2017-11-23T19:44:46.899Z,14.80
2017-11-23T19:47:15.159Z,14.80
2017-11-23T19:49:43.416Z,14.90
2017-11-23T19:52:11.684Z,14.80
2017-11-23T19:54:39.928Z,14.90
2017-11-23T19:57:08.185Z,14.90
2017-11-23T19:59:36.432Z,14.80
2017-11-23T20:02:04.742Z,14.80
2017-11-23T20:04:32.976Z,14.80
2017-11-23T20:07:01.243Z,14.90
2017-11-23T20:09:30.256Z,14.80
2017-11-23T20:11:58.511Z,14.80
2017-11-23T20:14:27.525Z,14.80
2017-11-23T20:16:56.564Z,14.90
2017-11-23T20:19:24.808Z,14.80
2017-11-23T20:21:53.074Z,14.80
2017-11-23T20:24:22.075Z,14.80
2017-11-23T20:26:51.097Z,14.80
2017-11-23T20:29:19.340Z,14.80
2017-11-23T20:31:48.357Z,14.60
2017-11-23T20:34:17.392Z,14.50
2017-11-23T20:36:45.635Z,14.50
2017-11-23T20:39:13.904Z,14.40
2017-11-23T20:41:42.144Z,14.30
2017-11-23T20:44:10.406Z,14.40
2017-11-23T20:46:38.660Z,14.30
2017-11-23T20:49:07.898Z,14.40
2017-11-23T20:51:36.148Z,14.40
2017-11-23T20:54:04.413Z,14.40
2017-11-23T20:56:33.434Z,14.40
2017-11-23T20:59:02.452Z,14.40
2017-11-23T21:01:30.707Z,14.40
2017-11-23T21:03:59.769Z,14.50
2017-11-23T21:06:28.820Z,14.50
2017-11-23T21:08:57.090Z,14.50
2017-11-23T21:11:26.108Z,14.40
2017-11-23T21:13:54.398Z,14.40
2017-11-23T21:16:22.644Z,14.30
2017-11-23T21:18:52.025Z,14.30
2017-11-23T21:21:20.365Z,14.30
2017-11-23T21:23:48.632Z,14.40
2017-11-23T21:26:16.936Z,14.40
2017-11-23T21:28:45.200Z,14.30
2017-11-23T21:31:13.462Z,14.30
2017-11-23T21:33:42.500Z,14.40
2017-11-23T21:36:10.755Z,14.30
2017-11-23T21:38:39.832Z,14.30
2017-11-23T21:41:08.832Z,14.20
2017-11-23T21:43:37.849Z,14.10
2017-11-23T21:46:06.103Z,14.10
2017-11-23T21:48:35.112Z,14.10
2017-11-23T21:51:04.143Z,14.10
2017-11-23T21:53:32.707Z,14.10
2017-11-23T21:56:02.075Z,14.10
2017-11-23T21:58:31.586Z,14.10
2017-11-23T22:01:00.201Z,14.10
2017-11-23T22:03:28.783Z,14.00
2017-11-23T22:05:57.049Z,14.00
2017-11-23T22:08:25.292Z,14.00
2017-11-23T22:10:53.566Z,14.00
2017-11-23T22:13:21.812Z,14.00
2017-11-23T22:15:50.832Z,14.00
2017-11-23T22:18:19.076Z,14.00
2017-11-23T22:20:47.344Z,13.90
2017-11-23T22:23:15.615Z,13.90
2017-11-23T22:25:43.858Z,13.90
2017-11-23T22:28:12.107Z,13.90
2017-11-23T22:30:40.376Z,13.90
2017-11-23T22:33:08.616Z,13.80
2017-11-23T22:35:36.877Z,13.80
2017-11-23T22:38:05.888Z,13.80
2017-11-23T22:40:34.144Z,13.80
2017-11-23T22:43:03.161Z,13.80
2017-11-23T22:45:31.432Z,13.70
2017-11-23T22:48:00.437Z,13.70
2017-11-23T22:50:28.680Z,13.70
2017-11-23T22:52:58.900Z,13.70
2017-11-23T22:55:27.135Z,13.70
2017-11-23T22:57:55.400Z,13.70
2017-11-23T23:00:24.404Z,13.60
2017-11-23T23:02:52.663Z,13.60
2017-11-23T23:05:20.905Z,13.60
2017-11-23T23:07:49.160Z,13.60
2017-11-23T23:10:17.409Z,13.50
2017-11-23T23:12:45.668Z,13.50
2017-11-23T23:15:13.903Z,13.50
2017-11-23T23:17:42.179Z,13.50
2017-11-23T23:20:10.455Z,13.50
2017-11-23T23:22:38.733Z,13.50
2017-11-23T23:25:06.992Z,13.40
2017-11-23T23:27:35.244Z,13.40
2017-11-23T23:30:03.497Z,13.40
2017-11-23T23:32:31.760Z,13.30
2017-11-23T23:35:00.012Z,13.30
2017-11-23T23:37:28.281Z,13.30
2017-11-23T23:39:56.540Z,13.30
2017-11-23T23:42:24.820Z,13.30
2017-11-23T23:44:53.063Z,13.30
2017-11-23T23:47:21.402Z,13.20
2017-11-23T23:49:49.663Z,13.30
2017-11-23T23:52:17.926Z,13.20
2017-11-23T23:54:46.171Z,13.10
2017-11-23T23:57:15.188Z,13.20
2017-11-23T23:59:43.463Z,13.10
